createdAt,value
2022-09-14T00:02:02.201Z,99307.83
2022-09-14T00:04:32.283Z,99305.41
2022-09-14T00:07:02.245Z,99304.57
2022-09-14T00:09:32.554Z,99306.63
2022-09-14T00:12:01.994Z,99312.14
2022-09-14T00:14:31.956Z,99310.11
2022-09-14T00:17:01.580Z,99303.71
2022-09-14T00:19:34.120Z,99300.51
2022-09-14T00:22:15.338Z,99304.91
2022-09-14T00:24:49.326Z,99306.76
2022-09-14T00:27:17.991Z,99305.10
2022-09-14T00:29:48.183Z,99301.77
2022-09-14T00:32:19.489Z,99300.08
2022-09-14T00:34:50.589Z,99306.09
2022-09-14T00:37:21.812Z,99301.55
2022-09-14T00:39:52.520Z,99300.95
2022-09-14T00:42:25.141Z,99302.15
2022-09-14T00:44:59.111Z,99306.14
2022-09-14T00:47:30.962Z,99298.86
2022-09-14T00:50:06.201Z,99302.91
2022-09-14T00:52:40.340Z,99307.62
2022-09-14T00:55:15.323Z,99306.55
2022-09-14T00:57:48.788Z,99305.28
2022-09-14T01:00:26.516Z,99300.43
2022-09-14T01:02:58.919Z,99304.33
2022-09-14T01:05:43.776Z,99298.21
2022-09-14T01:08:26.391Z,99296.86
2022-09-14T01:11:35.371Z,99294.63
2022-09-14T01:14:47.883Z,99295.91
2022-09-14T01:17:28.734Z,99299.45
2022-09-14T01:20:28.862Z,99305.69
2022-09-14T01:23:03.940Z,99303.07
2022-09-14T01:26:29.466Z,99300.56
2022-09-14T01:28:57.597Z,99306.34
2022-09-14T01:32:00.656Z,99305.08
2022-09-14T01:34:36.671Z,99301.66
2022-09-14T01:37:36.562Z,99307.36
2022-09-14T01:40:27.445Z,99300.56
2022-09-14T01:43:42.074Z,99288.38
2022-09-14T01:46:27.605Z,99283.17
2022-09-14T01:49:28.498Z,99283.64
2022-09-14T01:52:11.680Z,99283.54
2022-09-14T01:54:52.062Z,99279.63
2022-09-14T01:57:37.729Z,99284.54
2022-09-14T02:00:11.653Z,99274.73
2022-09-14T02:02:51.278Z,99278.79
2022-09-14T02:05:31.245Z,99277.29
2022-09-14T02:08:00.688Z,99281.05
2022-09-14T02:10:31.610Z,99275.83
2022-09-14T02:13:06.804Z,99273.92
2022-09-14T02:15:37.008Z,99272.16
2022-09-14T02:18:05.697Z,99274.17
2022-09-14T02:20:47.918Z,99271.09
2022-09-14T02:23:18.587Z,99264.44
2022-09-14T02:25:47.761Z,99266.02
2022-09-14T02:28:17.669Z,99259.73
2022-09-14T02:30:49.740Z,99257.73
2022-09-14T02:33:34.355Z,99256.00
2022-09-14T02:36:16.090Z,99257.16
2022-09-14T02:38:56.734Z,99260.95
2022-09-14T02:41:48.543Z,99260.29
2022-09-14T02:44:34.447Z,99258.10
2022-09-14T02:47:10.906Z,99257.23
2022-09-14T02:49:50.648Z,99256.69
2022-09-14T02:52:50.157Z,99258.46
2022-09-14T02:55:26.235Z,99256.11
2022-09-14T02:58:11.925Z,99258.44
2022-09-14T03:00:43.013Z,99255.32
2022-09-14T03:03:12.301Z,99256.74
2022-09-14T03:05:42.683Z,99258.83
2022-09-14T03:08:12.316Z,99259.08
2022-09-14T03:10:42.526Z,99257.98
2022-09-14T03:13:11.277Z,99245.52
2022-09-14T03:15:39.455Z,99250.08
2022-09-14T03:18:12.305Z,99251.41
2022-09-14T03:20:43.946Z,99249.89
2022-09-14T03:23:13.209Z,99249.45
2022-09-14T03:25:44.506Z,99243.38
2022-09-14T03:28:14.268Z,99250.65
2022-09-14T03:30:41.724Z,99250.11
2022-09-14T03:33:09.210Z,99248.15
2022-09-14T03:35:37.969Z,99245.36
2022-09-14T03:38:04.558Z,99242.31
2022-09-14T03:40:32.887Z,99240.06
2022-09-14T03:43:00.633Z,99236.17
2022-09-14T03:45:27.704Z,99232.89
2022-09-14T03:47:55.142Z,99236.95
2022-09-14T03:50:23.523Z,99233.52
2022-09-14T03:52:52.203Z,99239.42
2022-09-14T03:55:23.349Z,99233.88
2022-09-14T03:57:53.897Z,99230.77
2022-09-14T04:00:21.324Z,99235.02
2022-09-14T04:02:51.510Z,99239.54
2022-09-14T04:05:21.689Z,99242.05
2022-09-14T04:07:49.587Z,99243.77
2022-09-14T04:10:17.670Z,99242.66
2022-09-14T04:12:48.713Z,99236.51
2022-09-14T04:15:18.293Z,99236.65
2022-09-14T04:17:52.381Z,99237.88
2022-09-14T04:20:19.860Z,99239.33
2022-09-14T04:22:47.974Z,99235.01
2022-09-14T04:25:37.372Z,99235.61
2022-09-14T04:28:19.743Z,99236.27
2022-09-14T04:31:04.449Z,99237.98
2022-09-14T04:33:35.071Z,99233.80
2022-09-14T04:36:05.343Z,99234.02
2022-09-14T04:38:35.382Z,99235.53
2022-09-14T04:41:05.443Z,99233.49
2022-09-14T04:43:32.155Z,99237.95
2022-09-14T04:46:04.554Z,99243.10
2022-09-14T04:48:36.139Z,99243.63
2022-09-14T04:51:07.908Z,99249.73
2022-09-14T04:53:37.292Z,99248.06
2022-09-14T04:56:07.845Z,99249.81
2022-09-14T04:58:39.620Z,99252.05
2022-09-14T05:01:10.444Z,99240.17
2022-09-14T05:03:40.127Z,99242.05
2022-09-14T05:06:18.425Z,99248.26
2022-09-14T05:08:46.086Z,99248.48
2022-09-14T05:11:17.267Z,99248.32
2022-09-14T05:13:49.998Z,99251.89
2022-09-14T05:16:29.686Z,99250.23
2022-09-14T05:19:19.525Z,99248.07
2022-09-14T05:22:01.529Z,99249.02
2022-09-14T05:24:29.417Z,99245.66
2022-09-14T05:27:01.624Z,99243.58
2022-09-14T05:29:32.145Z,99250.81
2022-09-14T05:31:59.357Z,99253.91
2022-09-14T05:34:28.316Z,99254.30
2022-09-14T05:36:57.053Z,99250.92
2022-09-14T05:39:25.312Z,99254.13
2022-09-14T05:41:54.076Z,99255.13
2022-09-14T05:44:21.287Z,99254.06
2022-09-14T05:46:48.220Z,99253.95
2022-09-14T05:49:15.479Z,99260.98
2022-09-14T05:51:42.350Z,99254.20
2022-09-14T05:54:16.808Z,99241.90
2022-09-14T05:56:45.051Z,99238.13
2022-09-14T05:59:14.395Z,99235.06
2022-09-14T06:01:41.633Z,99238.20
2022-09-14T06:04:12.479Z,99241.11
2022-09-14T06:06:40.375Z,99239.48
2022-09-14T06:09:08.662Z,99237.27
2022-09-14T06:11:38.975Z,99239.15
2022-09-14T06:14:06.561Z,99241.77
2022-09-14T06:16:35.178Z,99234.73
2022-09-14T06:19:01.935Z,99234.77
2022-09-14T06:21:32.730Z,99239.08
2022-09-14T06:24:01.718Z,99241.10
2022-09-14T06:26:30.278Z,99244.15
2022-09-14T06:28:57.073Z,99239.92
2022-09-14T06:31:25.752Z,99239.98
2022-09-14T06:33:53.841Z,99236.13
2022-09-14T06:36:26.082Z,99232.71
2022-09-14T06:38:54.620Z,99232.16
2022-09-14T06:41:28.495Z,99239.58
2022-09-14T06:43:58.214Z,99242.10
2022-09-14T06:46:29.347Z,99245.92
2022-09-14T06:49:02.661Z,99240.14
2022-09-14T06:51:38.422Z,99239.80
2022-09-14T06:54:06.186Z,99248.66
2022-09-14T06:56:36.263Z,99253.79
2022-09-14T06:59:04.528Z,99248.69
2022-09-14T07:01:33.404Z,99244.17
2022-09-14T07:04:02.386Z,99241.48
2022-09-14T07:06:30.872Z,99236.94
2022-09-14T07:08:57.944Z,99235.26
2022-09-14T07:11:27.181Z,99235.98
2022-09-14T07:13:56.722Z,99241.98
2022-09-14T07:16:24.075Z,99238.27
2022-09-14T07:18:54.822Z,99235.80
2022-09-14T07:21:23.867Z,99235.88
2022-09-14T07:23:52.687Z,99232.63
2022-09-14T07:26:38.915Z,99232.27
2022-09-14T07:29:14.783Z,99232.10
2022-09-14T07:31:45.726Z,99233.18
2022-09-14T07:34:13.026Z,99238.13
2022-09-14T07:36:40.989Z,99232.06
2022-09-14T07:39:11.018Z,99232.17
2022-09-14T07:41:37.677Z,99232.02
2022-09-14T07:44:06.788Z,99226.03
2022-09-14T07:46:38.422Z,99229.13
2022-09-14T07:49:06.337Z,99227.00
2022-09-14T07:51:34.501Z,99225.86
2022-09-14T07:54:01.669Z,99227.39
2022-09-14T07:56:29.163Z,99228.93
2022-09-14T07:59:11.505Z,99227.73
2022-09-14T08:01:38.688Z,99226.48
2022-09-14T08:04:07.312Z,99228.69
2022-09-14T08:06:34.064Z,99221.55
2022-09-14T08:09:09.351Z,99224.86
2022-09-14T08:11:36.273Z,99222.45
2022-09-14T08:14:12.115Z,99221.85
2022-09-14T08:16:39.695Z,99220.55
2022-09-14T08:19:14.295Z,99226.53
2022-09-14T08:21:51.427Z,99214.13
2022-09-14T08:24:51.563Z,99217.23
2022-09-14T08:27:31.486Z,99220.70
2022-09-14T08:30:49.680Z,99220.78
2022-09-14T08:37:50.090Z,99214.73
2022-09-14T08:40:20.392Z,99214.05
2022-09-14T08:43:20.538Z,99211.98
2022-09-14T08:47:33.398Z,99209.96
2022-09-14T08:55:14.945Z,99210.88
2022-09-14T08:57:52.778Z,99208.94
2022-09-14T09:00:38.124Z,99211.75
2022-09-14T09:03:39.604Z,99204.81
2022-09-14T09:06:16.155Z,99207.64
2022-09-14T09:09:02.353Z,99207.11
2022-09-14T09:11:39.070Z,99207.21
2022-09-14T09:14:18.533Z,99209.13
2022-09-14T09:16:48.872Z,99207.15
2022-09-14T09:19:28.457Z,99209.34
2022-09-14T09:21:56.642Z,99209.58
2022-09-14T09:24:39.120Z,99211.54
2022-09-14T09:27:14.705Z,99209.69
2022-09-14T09:29:42.925Z,99207.73
2022-09-14T09:32:16.419Z,99206.50
2022-09-14T09:35:06.481Z,99207.00
2022-09-14T09:37:52.156Z,99209.86
2022-09-14T09:40:29.550Z,99200.80
2022-09-14T09:43:08.636Z,99201.17
2022-09-14T09:45:58.818Z,99200.55
2022-09-14T09:48:38.221Z,99197.75
2022-09-14T09:51:10.673Z,99197.19
2022-09-14T09:53:47.312Z,99194.19
2022-09-14T09:56:26.698Z,99193.19
2022-09-14T09:58:54.359Z,99195.63
2022-09-14T10:01:28.512Z,99191.05
2022-09-14T10:04:18.341Z,99189.48
2022-09-14T10:06:51.475Z,99189.04
2022-09-14T10:09:20.725Z,99190.39
2022-09-14T10:11:56.767Z,99187.25
2022-09-14T10:14:30.815Z,99187.88
2022-09-14T10:17:07.329Z,99180.98
2022-09-14T10:19:34.257Z,99181.98
2022-09-14T10:22:16.662Z,99177.20
2022-09-14T10:24:54.551Z,99180.58
2022-09-14T10:27:53.538Z,99181.70
2022-09-14T10:30:32.343Z,99182.86
2022-09-14T10:33:01.980Z,99178.79
2022-09-14T10:35:56.250Z,99176.80
2022-09-14T10:38:34.439Z,99174.95
2022-09-14T10:41:22.462Z,99175.48
2022-09-14T10:44:04.888Z,99179.33
2022-09-14T10:46:54.991Z,99177.38
2022-09-14T10:49:42.511Z,99175.95
2022-09-14T10:52:29.608Z,99173.38
2022-09-14T10:55:23.074Z,99164.08
2022-09-14T10:57:58.242Z,99162.91
2022-09-14T11:00:30.388Z,99160.58
2022-09-14T11:03:27.170Z,99157.58
2022-09-14T11:06:15.513Z,99154.31
2022-09-14T11:08:45.883Z,99151.52
2022-09-14T11:11:24.217Z,99153.14
2022-09-14T11:14:10.893Z,99151.20
2022-09-14T11:16:55.821Z,99147.06
2022-09-14T11:19:29.211Z,99150.67
2022-09-14T11:22:08.102Z,99151.14
2022-09-14T11:24:39.037Z,99145.95
2022-09-14T11:27:11.235Z,99148.56
2022-09-14T11:29:46.308Z,99148.25
2022-09-14T11:32:22.331Z,99145.38
2022-09-14T11:35:12.164Z,99139.77
2022-09-14T11:37:46.541Z,99139.73
2022-09-14T11:40:23.566Z,99133.86
2022-09-14T11:43:10.085Z,99126.55
2022-09-14T11:45:52.119Z,99123.20
2022-09-14T11:48:58.045Z,99121.95
2022-09-14T11:51:32.492Z,99116.82
2022-09-14T11:53:59.055Z,99118.17
2022-09-14T11:56:31.562Z,99113.99
2022-09-14T11:59:01.508Z,99109.65
2022-09-14T12:01:36.968Z,99109.23
2022-09-14T12:04:07.883Z,99109.63
2022-09-14T12:06:37.535Z,99116.90
2022-09-14T12:09:14.777Z,99119.13
2022-09-14T12:11:45.019Z,99120.83
2022-09-14T12:14:23.756Z,99118.55
2022-09-14T12:17:17.289Z,99112.16
2022-09-14T12:19:52.148Z,99106.49
2022-09-14T12:22:33.877Z,99107.16
2022-09-14T12:25:22.565Z,99108.02
2022-09-14T12:27:49.730Z,99110.87
2022-09-14T12:30:41.312Z,99112.35
2022-09-14T12:33:33.680Z,99111.81
2022-09-14T12:36:10.810Z,99108.07
2022-09-14T12:38:40.770Z,99101.61
2022-09-14T12:41:10.612Z,99101.63
2022-09-14T12:43:37.360Z,99095.29
2022-09-14T12:46:19.185Z,99094.79
2022-09-14T12:48:48.394Z,99088.17
2022-09-14T12:51:25.025Z,99083.66
2022-09-14T12:54:34.893Z,99086.61
2022-09-14T12:57:06.948Z,99092.00
2022-09-14T13:00:11.752Z,99086.09
2022-09-14T13:02:56.921Z,99071.19
2022-09-14T13:05:28.406Z,99074.23
2022-09-14T13:07:55.899Z,99076.62
2022-09-14T13:10:35.269Z,99076.00
2022-09-14T13:13:14.997Z,99083.45
2022-09-14T13:16:03.046Z,99076.35
2022-09-14T13:18:35.394Z,99064.37
2022-09-14T13:21:21.908Z,99050.66
2022-09-14T13:23:48.818Z,99042.16
2022-09-14T13:26:17.509Z,99040.45
2022-09-14T13:28:46.334Z,99036.98
2022-09-14T13:31:18.299Z,99031.30
2022-09-14T13:33:51.078Z,99033.42
2022-09-14T13:36:22.438Z,99035.60
2022-09-14T13:38:50.193Z,99038.87
2022-09-14T13:41:18.760Z,99037.50
2022-09-14T13:43:49.060Z,99028.43
2022-09-14T13:46:20.115Z,99025.74
2022-09-14T13:48:47.343Z,99030.14
2022-09-14T13:51:14.533Z,99028.91
2022-09-14T13:53:49.912Z,99016.16
2022-09-14T13:56:19.447Z,99010.44
2022-09-14T13:58:48.707Z,99005.60
2022-09-14T14:01:27.444Z,99008.36
2022-09-14T14:03:55.205Z,99006.35
2022-09-14T14:06:28.809Z,99002.17
2022-09-14T14:09:09.744Z,99000.83
2022-09-14T14:11:45.202Z,98998.75
2022-09-14T14:14:32.113Z,99000.55
2022-09-14T14:17:23.345Z,98999.30
2022-09-14T14:19:55.139Z,98994.30
2022-09-14T14:22:28.526Z,98999.78
2022-09-14T14:25:12.871Z,99000.98
2022-09-14T14:27:44.140Z,98998.56
2022-09-14T14:30:15.804Z,98997.60
2022-09-14T14:32:49.127Z,98995.20
2022-09-14T14:35:19.404Z,98999.77
2022-09-14T14:37:47.219Z,99003.28
2022-09-14T14:40:16.077Z,99000.69
2022-09-14T14:42:44.338Z,98991.30
2022-09-14T14:45:18.465Z,98987.45
2022-09-14T14:47:50.055Z,98986.48
2022-09-14T14:50:22.365Z,98988.75
2022-09-14T14:52:51.147Z,98991.29
2022-09-14T14:55:19.208Z,98995.82
2022-09-14T14:57:45.794Z,98998.23
2022-09-14T15:00:17.242Z,98993.25
2022-09-14T15:02:44.241Z,98990.34
2022-09-14T15:05:12.044Z,98990.20
2022-09-14T15:07:58.231Z,98989.98
2022-09-14T15:10:29.839Z,98989.25
2022-09-14T15:12:59.597Z,98980.72
2022-09-14T15:15:26.355Z,98976.20
2022-09-14T15:17:53.608Z,98977.52
2022-09-14T15:20:22.837Z,98977.97
2022-09-14T15:22:51.042Z,98977.78
2022-09-14T15:25:19.436Z,98972.02
2022-09-14T15:27:47.264Z,98976.02
2022-09-14T15:30:16.141Z,98975.27
2022-09-14T15:32:43.407Z,98979.98
2022-09-14T15:35:13.582Z,98982.02
2022-09-14T15:37:41.307Z,98985.06
2022-09-14T15:40:09.266Z,98984.39
2022-09-14T15:42:36.012Z,98986.27
2022-09-14T15:45:05.319Z,98989.27
2022-09-14T15:47:35.610Z,98988.59
2022-09-14T15:50:05.355Z,98978.75
2022-09-14T15:52:34.419Z,98979.52
2022-09-14T15:55:00.957Z,98980.80
2022-09-14T15:57:27.314Z,98983.35
2022-09-14T15:59:54.317Z,98981.85
2022-09-14T16:02:21.390Z,98977.59
2022-09-14T16:04:48.047Z,98980.46
2022-09-14T16:07:14.820Z,98976.18
2022-09-14T16:09:41.614Z,98975.31
2022-09-14T16:12:10.122Z,98973.84
2022-09-14T16:14:36.465Z,98973.74
2022-09-14T16:17:04.456Z,98974.92
2022-09-14T16:19:31.282Z,98979.53
2022-09-14T16:21:57.830Z,98978.84
2022-09-14T16:24:25.150Z,98976.19
2022-09-14T16:26:51.971Z,98968.08
2022-09-14T16:29:20.217Z,98972.20
2022-09-14T16:31:47.868Z,98972.38
2022-09-14T16:34:21.235Z,98972.93
2022-09-14T16:36:48.561Z,98969.96
2022-09-14T16:39:18.870Z,98968.95
2022-09-14T16:41:46.023Z,98964.87
2022-09-14T16:44:20.208Z,98966.26
2022-09-14T16:46:48.579Z,98965.99
2022-09-14T16:49:16.278Z,98967.70
2022-09-14T16:51:43.071Z,98966.73
2022-09-14T16:54:14.286Z,98967.55
2022-09-14T16:56:41.211Z,98965.61
2022-09-14T16:59:07.840Z,98962.56
2022-09-14T17:01:37.565Z,98961.70
2022-09-14T17:04:08.895Z,98963.42
2022-09-14T17:06:37.786Z,98967.48
2022-09-14T17:09:07.591Z,98965.92
2022-09-14T17:11:36.017Z,98968.04
2022-09-14T17:14:03.279Z,98968.70
2022-09-14T17:16:30.064Z,98965.55
2022-09-14T17:19:00.133Z,98961.14
2022-09-14T17:21:29.927Z,98958.55
2022-09-14T17:23:57.719Z,98957.54
2022-09-14T17:26:25.306Z,98957.94
2022-09-14T17:28:55.562Z,98957.94
2022-09-14T17:31:30.704Z,98963.52
2022-09-14T17:34:00.296Z,98962.59
2022-09-14T17:36:27.825Z,98958.02
2022-09-14T17:38:59.142Z,98957.33
2022-09-14T17:41:27.558Z,98957.33
2022-09-14T17:43:57.151Z,98962.21
2022-09-14T17:46:24.674Z,98962.73
2022-09-14T17:48:51.505Z,98963.48
2022-09-14T17:51:21.338Z,98960.11
2022-09-14T17:53:51.390Z,98959.94
2022-09-14T17:56:20.195Z,98955.32
2022-09-14T17:58:48.319Z,98954.09
2022-09-14T18:01:24.100Z,98955.26
2022-09-14T18:03:53.703Z,98952.36
2022-09-14T18:06:23.691Z,98949.44
2022-09-14T18:08:55.578Z,98945.27
2022-09-14T18:11:24.693Z,98942.91
2022-09-14T18:13:51.245Z,98937.75
2022-09-14T18:16:20.963Z,98939.61
2022-09-14T18:18:47.692Z,98934.04
2022-09-14T18:21:16.423Z,98937.65
2022-09-14T18:23:43.327Z,98934.98
2022-09-14T18:26:10.302Z,98930.08
2022-09-14T18:28:36.657Z,98928.39
2022-09-14T18:31:09.788Z,98928.61
2022-09-14T18:33:36.811Z,98925.85
2022-09-14T18:36:05.461Z,98922.71
2022-09-14T18:38:33.052Z,98918.15
2022-09-14T18:41:08.184Z,98919.91
2022-09-14T18:43:35.553Z,98922.17
2022-09-14T18:46:05.998Z,98924.46
2022-09-14T18:48:33.980Z,98932.98
2022-09-14T18:51:04.343Z,98930.67
2022-09-14T18:53:31.391Z,98933.64
2022-09-14T18:56:07.764Z,98931.03
2022-09-14T18:58:36.357Z,98937.26
2022-09-14T19:01:03.733Z,98934.00
2022-09-14T19:03:31.895Z,98935.03
2022-09-14T19:06:09.578Z,98939.77
2022-09-14T19:08:36.789Z,98932.66
2022-09-14T19:11:26.618Z,98931.27
2022-09-14T19:14:01.129Z,98932.77
2022-09-14T19:16:29.276Z,98931.00
2022-09-14T19:18:55.872Z,98925.39
2022-09-14T19:21:25.375Z,98922.73
2022-09-14T19:24:07.033Z,98920.30
2022-09-14T19:26:45.086Z,98916.23
2022-09-14T19:29:14.602Z,98913.90
2022-09-14T19:31:41.386Z,98905.66
2022-09-14T19:34:11.011Z,98897.08
2022-09-14T19:36:38.048Z,98891.67
2022-09-14T19:39:05.295Z,98891.40
2022-09-14T19:41:33.385Z,98888.55
2022-09-14T19:44:04.234Z,98892.23
2022-09-14T19:46:31.539Z,98895.33
2022-09-14T19:48:59.341Z,98896.82
2022-09-14T19:51:27.937Z,98897.77
2022-09-14T19:53:56.892Z,98899.98
2022-09-14T19:56:26.743Z,98898.84
2022-09-14T19:58:56.820Z,98892.48
2022-09-14T20:01:25.650Z,98879.70
2022-09-14T20:03:53.210Z,98875.48
2022-09-14T20:06:26.054Z,98876.27
2022-09-14T20:08:55.370Z,98881.61
2022-09-14T20:11:23.565Z,98881.16
2022-09-14T20:13:54.141Z,98881.23
2022-09-14T20:16:29.912Z,98880.71
2022-09-14T20:18:59.547Z,98879.04
2022-09-14T20:21:27.335Z,98879.67
2022-09-14T20:24:15.539Z,98880.62
2022-09-14T20:26:44.945Z,98871.91
2022-09-14T20:29:11.776Z,98870.76
2022-09-14T20:31:38.339Z,98871.05
2022-09-14T20:34:05.003Z,98869.72
2022-09-14T20:36:31.971Z,98868.20
2022-09-14T20:38:59.128Z,98867.57
2022-09-14T20:41:29.109Z,98866.89
2022-09-14T20:43:55.840Z,98859.13
2022-09-14T20:46:37.779Z,98855.38
2022-09-14T20:49:05.842Z,98856.45
2022-09-14T20:51:35.337Z,98854.66
2022-09-14T20:54:02.039Z,98853.73
2022-09-14T20:56:32.145Z,98856.98
2022-09-14T20:59:00.766Z,98858.84
2022-09-14T21:01:32.749Z,98853.80
2022-09-14T21:04:06.069Z,98850.19
2022-09-14T21:06:36.183Z,98853.13
2022-09-14T21:09:04.795Z,98854.16
2022-09-14T21:11:32.401Z,98853.70
2022-09-14T21:14:00.344Z,98853.41
2022-09-14T21:16:33.303Z,98854.02
2022-09-14T21:19:06.611Z,98854.90
2022-09-14T21:21:33.944Z,98847.56
2022-09-14T21:24:01.201Z,98839.19
2022-09-14T21:26:29.458Z,98838.56
2022-09-14T21:28:58.782Z,98839.85
2022-09-14T21:31:27.987Z,98840.65
2022-09-14T21:33:58.294Z,98836.80
2022-09-14T21:36:35.286Z,98836.02
2022-09-14T21:39:09.244Z,98829.97
2022-09-14T21:41:37.708Z,98825.52
2022-09-14T21:44:04.791Z,98827.02
2022-09-14T21:46:33.161Z,98831.44
2022-09-14T21:48:59.818Z,98837.14
2022-09-14T21:51:29.527Z,98838.86
2022-09-14T21:53:58.353Z,98840.81
2022-09-14T21:56:27.286Z,98834.45
2022-09-14T21:58:56.991Z,98829.91
2022-09-14T22:01:23.677Z,98824.73
2022-09-14T22:03:52.187Z,98823.10
2022-09-14T22:06:20.854Z,98826.52
2022-09-14T22:08:48.571Z,98823.42
2022-09-14T22:11:21.172Z,98823.45
2022-09-14T22:13:57.881Z,98816.80
2022-09-14T22:16:26.183Z,98815.40
2022-09-14T22:18:55.814Z,98811.34
2022-09-14T22:21:24.317Z,98810.17
2022-09-14T22:23:56.388Z,98806.10
2022-09-14T22:26:24.656Z,98801.92
2022-09-14T22:28:53.198Z,98800.89
2022-09-14T22:31:24.606Z,98803.34
2022-09-14T22:33:54.877Z,98807.39
2022-09-14T22:36:22.675Z,98806.31
2022-09-14T22:38:49.533Z,98801.67
2022-09-14T22:41:18.995Z,98800.08
2022-09-14T22:43:46.066Z,98797.11
2022-09-14T22:46:14.052Z,98795.20
2022-09-14T22:48:41.031Z,98802.18
2022-09-14T22:51:10.444Z,98802.34
2022-09-14T22:53:37.406Z,98798.61
2022-09-14T22:56:19.652Z,98788.92
2022-09-14T22:58:47.423Z,98784.92
2022-09-14T23:01:27.565Z,98785.20
2022-09-14T23:04:01.467Z,98788.77
2022-09-14T23:06:31.585Z,98788.72
2022-09-14T23:08:59.773Z,98779.05
2022-09-14T23:11:26.455Z,98771.71
2022-09-14T23:13:54.057Z,98773.30
2022-09-14T23:16:25.378Z,98779.19
2022-09-14T23:18:53.935Z,98781.02
2022-09-14T23:21:21.012Z,98786.35
2022-09-14T23:23:55.782Z,98786.83
2022-09-14T23:26:23.367Z,98780.63
2022-09-14T23:29:00.968Z,98772.19
2022-09-14T23:31:29.532Z,98771.91
2022-09-14T23:33:58.125Z,98774.77
2022-09-14T23:36:25.757Z,98776.45
2022-09-14T23:38:52.930Z,98772.28
2022-09-14T23:41:22.307Z,98779.13
2022-09-14T23:43:49.536Z,98783.73
2022-09-14T23:46:17.423Z,98784.23
2022-09-14T23:48:45.219Z,98774.55
2022-09-14T23:51:12.843Z,98772.09
2022-09-14T23:53:40.085Z,98775.27
2022-09-14T23:56:07.456Z,98775.33
2022-09-14T23:58:34.435Z,98770.89
